createdAt,value
2022-10-03T00:00:10.639Z,97604.06
2022-10-03T00:03:23.548Z,97600.03
2022-10-03T00:06:07.494Z,97609.13
2022-10-03T00:09:12.339Z,97606.09
2022-10-03T00:11:58.393Z,97607.22
2022-10-03T00:14:42.142Z,97624.91
2022-10-03T00:17:16.340Z,97619.06
2022-10-03T00:19:59.283Z,97620.38
2022-10-03T00:22:35.153Z,97623.31
2022-10-03T00:25:31.306Z,97622.69
2022-10-03T00:28:18.319Z,97626.91
2022-10-03T00:31:05.776Z,97626.03
2022-10-03T00:33:49.685Z,97629.88
2022-10-03T00:36:32.027Z,97637.56
2022-10-03T00:39:33.737Z,97633.72
2022-10-03T00:43:14.628Z,97634.84
2022-10-03T00:46:27.179Z,97644.13
2022-10-03T00:50:03.850Z,97643.94
2022-10-03T00:52:49.124Z,97640.28
2022-10-03T00:55:26.753Z,97653.34
2022-10-03T00:58:16.494Z,97655.06
2022-10-03T01:00:51.962Z,97653.53
2022-10-03T01:03:43.717Z,97646.78
2022-10-03T01:06:27.075Z,97646.88
2022-10-03T01:09:30.413Z,97651.22
2022-10-03T01:12:19.065Z,97645.31
2022-10-03T01:15:08.445Z,97647.06
2022-10-03T01:18:00.280Z,97647.25
2022-10-03T01:20:45.468Z,97639.38
2022-10-03T01:23:39.245Z,97651.41
2022-10-03T01:26:35.291Z,97654.84
2022-10-03T01:29:28.195Z,97652.91
2022-10-03T01:32:05.707Z,97649.59
2022-10-03T01:34:43.461Z,97656.69
2022-10-03T01:37:22.645Z,97664.88
2022-10-03T01:39:56.553Z,97667.00
2022-10-03T01:42:42.928Z,97666.47
2022-10-03T01:45:29.961Z,97668.41
2022-10-03T01:48:05.711Z,97668.41
2022-10-03T01:50:46.416Z,97670.31
2022-10-03T01:53:27.231Z,97668.00
2022-10-03T01:56:05.023Z,97682.69
2022-10-03T01:58:56.705Z,97685.41
2022-10-03T02:01:35.217Z,97683.78
2022-10-03T02:04:12.981Z,97679.13
2022-10-03T02:06:54.308Z,97674.28
2022-10-03T02:09:36.546Z,97678.00
2022-10-03T02:12:17.322Z,97669.94
2022-10-03T02:15:00.239Z,97676.59
2022-10-03T02:17:45.405Z,97669.53
2022-10-03T02:20:36.143Z,97663.53
2022-10-03T02:23:27.270Z,97672.81
2022-10-03T02:26:16.481Z,97672.22
2022-10-03T02:29:19.947Z,97677.88
2022-10-03T02:32:21.537Z,97674.34
2022-10-03T02:35:33.375Z,97673.94
2022-10-03T02:38:34.184Z,97685.28
2022-10-03T02:41:35.540Z,97689.63
2022-10-03T02:44:40.579Z,97690.63
2022-10-03T02:47:39.476Z,97690.53
2022-10-03T02:50:53.747Z,97696.50
2022-10-03T02:53:58.005Z,97690.63
2022-10-03T02:57:17.839Z,97701.66
2022-10-03T03:00:18.820Z,97704.78
2022-10-03T03:03:24.444Z,97707.75
2022-10-03T03:06:37.967Z,97710.09
2022-10-03T03:09:44.140Z,97711.69
2022-10-03T03:12:40.408Z,97716.25
2022-10-03T03:15:51.935Z,97716.44
2022-10-03T03:18:34.515Z,97715.56
2022-10-03T03:21:35.879Z,97722.44
2022-10-03T03:24:33.676Z,97723.44
2022-10-03T03:27:33.114Z,97718.78
2022-10-03T03:30:09.018Z,97727.72
2022-10-03T03:33:01.356Z,97733.56
2022-10-03T03:35:43.767Z,97736.31
2022-10-03T03:38:30.220Z,97735.69
2022-10-03T03:41:22.449Z,97739.47
2022-10-03T03:44:31.349Z,97743.91
2022-10-03T03:47:24.640Z,97752.41
2022-10-03T03:50:23.860Z,97752.09
2022-10-03T03:53:26.635Z,97750.78
2022-10-03T03:56:33.457Z,97751.91
2022-10-03T03:59:14.550Z,97753.28
2022-10-03T04:02:04.696Z,97743.06
2022-10-03T04:04:56.895Z,97750.44
2022-10-03T04:07:50.366Z,97747.66
2022-10-03T04:10:39.412Z,97744.28
2022-10-03T04:13:36.957Z,97749.63
2022-10-03T04:17:01.575Z,97744.03
2022-10-03T04:19:46.721Z,97744.69
2022-10-03T04:22:29.199Z,97741.81
2022-10-03T04:25:54.832Z,97745.09
2022-10-03T04:28:45.667Z,97745.66
2022-10-03T04:31:43.837Z,97750.06
2022-10-03T04:34:31.161Z,97748.97
2022-10-03T04:37:24.366Z,97760.84
2022-10-03T04:40:07.966Z,97751.50
2022-10-03T04:42:50.792Z,97750.66
2022-10-03T04:45:41.335Z,97744.50
2022-10-03T04:48:18.351Z,97748.41
2022-10-03T04:51:04.462Z,97746.75
2022-10-03T04:53:50.042Z,97744.88
2022-10-03T04:56:35.361Z,97740.81
2022-10-03T04:59:26.193Z,97744.88
2022-10-03T05:02:04.033Z,97748.00
2022-10-03T05:04:41.170Z,97748.91
2022-10-03T05:07:26.283Z,97749.78
2022-10-03T05:10:04.478Z,97754.72
2022-10-03T05:12:46.271Z,97755.84
2022-10-03T05:15:23.681Z,97760.13
2022-10-03T05:18:12.608Z,97751.78
2022-10-03T05:20:55.267Z,97764.25
2022-10-03T05:23:47.418Z,97763.50
2022-10-03T05:29:29.413Z,97770.72
2022-10-03T05:32:18.759Z,97772.50
2022-10-03T05:35:25.976Z,97779.38
2022-10-03T05:38:31.545Z,97774.03
2022-10-03T05:41:10.277Z,97782.06
2022-10-03T05:43:58.375Z,97775.94
2022-10-03T05:46:58.862Z,97780.44
2022-10-03T05:50:03.748Z,97782.13
2022-10-03T05:53:03.004Z,97786.28
2022-10-03T05:55:46.484Z,97785.41
2022-10-03T05:58:57.124Z,97793.09
2022-10-03T06:01:59.246Z,97796.84
2022-10-03T06:05:30.608Z,97798.53
2022-10-03T06:08:33.039Z,97795.09
2022-10-03T06:11:15.116Z,97800.72
2022-10-03T06:14:05.477Z,97810.47
2022-10-03T06:16:45.472Z,97807.88
2022-10-03T06:19:33.892Z,97807.59
2022-10-03T06:22:36.015Z,97813.28
2022-10-03T06:25:56.038Z,97812.88
2022-10-03T06:28:57.635Z,97819.34
2022-10-03T06:32:08.571Z,97828.38
2022-10-03T06:35:48.270Z,97826.63
2022-10-03T06:39:35.574Z,97828.16
2022-10-03T06:43:12.626Z,97832.13
2022-10-03T06:46:39.486Z,97839.78
2022-10-03T06:49:53.256Z,97844.59
2022-10-03T06:53:04.373Z,97840.88
2022-10-03T06:56:04.740Z,97852.75
2022-10-03T06:59:05.504Z,97847.75
2022-10-03T07:02:36.101Z,97844.69
2022-10-03T07:05:54.366Z,97855.81
2022-10-03T07:08:46.331Z,97860.53
2022-10-03T07:11:58.942Z,97855.50
2022-10-03T07:15:09.496Z,97862.19
2022-10-03T07:18:07.222Z,97856.16
2022-10-03T07:21:17.478Z,97858.38
2022-10-03T07:24:19.437Z,97859.25
2022-10-03T07:27:27.855Z,97865.28
2022-10-03T07:30:15.659Z,97864.31
2022-10-03T07:33:38.955Z,97860.47
2022-10-03T07:36:51.393Z,97868.59
2022-10-03T07:40:19.958Z,97869.34
2022-10-03T07:43:32.421Z,97866.53
2022-10-03T07:46:45.982Z,97873.78
2022-10-03T07:49:46.941Z,97872.53
2022-10-03T07:52:54.581Z,97883.69
2022-10-03T07:55:39.392Z,97885.19
2022-10-03T07:58:51.570Z,97881.31
2022-10-03T08:01:49.706Z,97887.19
2022-10-03T08:04:56.952Z,97886.97
2022-10-03T08:08:09.523Z,97888.34
2022-10-03T08:11:38.362Z,97890.34
2022-10-03T08:14:20.212Z,97896.94
2022-10-03T08:17:32.164Z,97892.78
2022-10-03T08:20:35.217Z,97895.34
2022-10-03T08:23:23.956Z,97897.22
2022-10-03T08:26:05.015Z,97904.31
2022-10-03T08:29:16.296Z,97911.16
2022-10-03T08:32:36.960Z,97914.88
2022-10-03T08:35:27.893Z,97914.41
2022-10-03T08:38:36.710Z,97912.72
2022-10-03T08:41:47.354Z,97908.34
2022-10-03T08:44:46.736Z,97903.38
2022-10-03T08:48:10.510Z,97921.59
2022-10-03T08:51:41.753Z,97911.94
2022-10-03T08:54:59.095Z,97904.44
2022-10-03T08:58:10.255Z,97914.19
2022-10-03T09:01:16.005Z,97920.69
2022-10-03T09:04:36.460Z,97913.06
2022-10-03T09:07:31.773Z,97910.06
2022-10-03T09:10:37.952Z,97906.03
2022-10-03T09:14:14.992Z,97907.00
2022-10-03T09:17:00.114Z,97907.38
2022-10-03T09:20:31.724Z,97913.41
2022-10-03T09:23:38.226Z,97907.69
2022-10-03T09:26:50.206Z,97911.47
2022-10-03T09:29:47.907Z,97917.50
2022-10-03T09:33:15.882Z,97907.53
2022-10-03T09:36:13.493Z,97913.97
2022-10-03T09:39:26.482Z,97914.94
2022-10-03T09:42:45.092Z,97923.59
2022-10-03T09:46:17.647Z,97922.50
2022-10-03T09:49:40.485Z,97926.44
2022-10-03T09:52:34.962Z,97918.84
2022-10-03T09:55:40.575Z,97918.66
2022-10-03T09:58:55.981Z,97916.53
2022-10-03T10:01:33.952Z,97923.44
2022-10-03T10:05:04.509Z,97922.50
2022-10-03T10:08:27.109Z,97920.00
2022-10-03T10:11:18.367Z,97924.56
2022-10-03T10:14:25.836Z,97922.56
2022-10-03T10:18:02.377Z,97920.09
2022-10-03T10:21:30.638Z,97912.09
2022-10-03T10:24:48.592Z,97916.44
2022-10-03T10:28:13.128Z,97918.06
2022-10-03T10:31:25.680Z,97920.81
2022-10-03T10:34:47.625Z,97913.50
2022-10-03T10:38:22.043Z,97906.97
2022-10-03T10:41:42.859Z,97910.16
2022-10-03T10:44:48.569Z,97907.44
2022-10-03T10:48:21.293Z,97916.50
2022-10-03T10:51:48.269Z,97913.84
2022-10-03T10:55:28.607Z,97916.78
2022-10-03T10:58:35.092Z,97910.31
2022-10-03T11:02:14.033Z,97915.97
2022-10-03T11:05:48.942Z,97908.28
2022-10-03T11:09:29.789Z,97913.59
2022-10-03T11:13:17.157Z,97915.44
2022-10-03T11:16:45.386Z,97905.72
2022-10-03T11:20:04.614Z,97903.81
2022-10-03T11:23:30.234Z,97909.97
2022-10-03T11:27:00.462Z,97913.03
2022-10-03T11:30:19.574Z,97903.69
2022-10-03T11:33:41.899Z,97903.50
2022-10-03T11:36:49.619Z,97904.81
2022-10-03T11:39:33.211Z,97894.13
2022-10-03T11:42:12.771Z,97903.44
2022-10-03T11:44:51.236Z,97905.22
2022-10-03T11:47:58.762Z,97902.72
2022-10-03T11:50:43.719Z,97908.22
2022-10-03T11:53:40.069Z,97897.25
2022-10-03T11:56:34.949Z,97900.56
2022-10-03T11:59:39.514Z,97902.00
2022-10-03T12:02:20.467Z,97904.03
2022-10-03T12:04:59.531Z,97891.47
2022-10-03T12:08:02.583Z,97887.16
2022-10-03T12:10:48.294Z,97882.28
2022-10-03T12:13:26.070Z,97888.31
2022-10-03T12:15:58.901Z,97871.75
2022-10-03T12:18:53.337Z,97873.56
2022-10-03T12:21:31.821Z,97883.63
2022-10-03T12:24:25.619Z,97878.03
2022-10-03T12:27:06.144Z,97870.59
2022-10-03T12:29:45.913Z,97867.28
2022-10-03T12:32:31.821Z,97877.13
2022-10-03T12:35:19.558Z,97874.03
2022-10-03T12:38:13.713Z,97868.06
2022-10-03T12:40:51.753Z,97868.72
2022-10-03T12:43:42.769Z,97870.81
2022-10-03T12:46:19.966Z,97860.09
2022-10-03T12:49:01.422Z,97867.88
2022-10-03T12:51:43.727Z,97871.25
2022-10-03T12:54:36.351Z,97873.28
2022-10-03T12:57:40.126Z,97865.78
2022-10-03T13:00:21.604Z,97862.06
2022-10-03T13:03:19.224Z,97864.06
2022-10-03T13:06:44.414Z,97867.66
2022-10-03T13:09:39.038Z,97856.38
2022-10-03T13:12:27.967Z,97858.06
2022-10-03T13:15:44.456Z,97855.53
2022-10-03T13:19:06.674Z,97855.97
2022-10-03T13:22:03.336Z,97851.44
2022-10-03T13:24:40.475Z,97855.41
2022-10-03T13:27:33.354Z,97853.41
2022-10-03T13:30:13.895Z,97851.16
2022-10-03T13:32:49.062Z,97847.22
2022-10-03T13:35:53.039Z,97835.28
2022-10-03T13:39:03.018Z,97838.09
2022-10-03T13:41:47.724Z,97824.50
2022-10-03T13:44:23.746Z,97832.78
2022-10-03T13:47:09.489Z,97830.50
2022-10-03T13:49:51.547Z,97833.38
2022-10-03T13:52:33.432Z,97843.78
2022-10-03T13:55:26.498Z,97835.03
2022-10-03T13:58:23.219Z,97844.94
2022-10-03T14:01:35.106Z,97843.69
2022-10-03T14:04:49.103Z,97839.69
2022-10-03T14:07:34.332Z,97835.31
2022-10-03T14:10:22.885Z,97833.28
2022-10-03T14:13:13.687Z,97826.88
2022-10-03T14:15:52.448Z,97829.16
2022-10-03T14:18:46.398Z,97828.50
2022-10-03T14:22:07.043Z,97822.06
2022-10-03T14:24:57.007Z,97830.34
2022-10-03T14:27:53.075Z,97823.72
2022-10-03T14:30:24.472Z,97824.09
2022-10-03T14:33:14.953Z,97823.22
2022-10-03T14:36:02.575Z,97827.31
2022-10-03T14:39:02.270Z,97823.03
2022-10-03T14:41:46.276Z,97829.69
2022-10-03T14:44:20.307Z,97829.97
2022-10-03T14:46:58.481Z,97831.31
2022-10-03T14:49:53.553Z,97821.38
2022-10-03T14:52:31.414Z,97832.63
2022-10-03T14:55:08.179Z,97834.06
2022-10-03T14:58:08.680Z,97826.59
2022-10-03T15:00:44.104Z,97831.72
2022-10-03T15:03:33.702Z,97825.94
2022-10-03T15:06:23.727Z,97832.56
2022-10-03T15:08:58.405Z,97831.59
2022-10-03T15:11:32.771Z,97822.19
2022-10-03T15:14:04.643Z,97822.00
2022-10-03T15:16:40.315Z,97818.88
2022-10-03T15:19:20.100Z,97824.94
2022-10-03T15:21:54.052Z,97819.91
2022-10-03T15:24:31.879Z,97815.72
2022-10-03T15:27:09.927Z,97816.31
2022-10-03T15:29:40.832Z,97816.38
2022-10-03T15:32:20.135Z,97818.66
2022-10-03T15:34:53.375Z,97812.44
2022-10-03T15:37:27.075Z,97814.44
2022-10-03T15:40:05.788Z,97811.63
2022-10-03T15:42:49.528Z,97815.25
2022-10-03T15:45:29.390Z,97812.91
2022-10-03T15:48:03.490Z,97808.09
2022-10-03T15:50:35.715Z,97810.13
2022-10-03T15:53:34.999Z,97811.28
2022-10-03T15:56:15.192Z,97814.22
2022-10-03T15:58:51.626Z,97813.50
2022-10-03T16:01:24.477Z,97810.88
2022-10-03T16:03:58.328Z,97808.97
2022-10-03T16:06:36.150Z,97811.34
2022-10-03T16:09:09.822Z,97815.59
2022-10-03T16:11:54.048Z,97807.66
2022-10-03T16:14:28.424Z,97813.50
2022-10-03T16:17:00.925Z,97810.09
2022-10-03T16:19:39.406Z,97817.03
2022-10-03T16:22:23.883Z,97817.66
2022-10-03T16:25:07.581Z,97821.19
2022-10-03T16:27:46.534Z,97823.59
2022-10-03T16:30:24.834Z,97821.25
2022-10-03T16:33:04.872Z,97819.00
2022-10-03T16:35:39.220Z,97821.03
2022-10-03T16:38:21.957Z,97814.19
2022-10-03T16:40:57.660Z,97819.25
2022-10-03T16:43:31.511Z,97822.59
2022-10-03T16:46:05.884Z,97820.75
2022-10-03T16:48:55.460Z,97817.13
2022-10-03T16:51:27.815Z,97821.47
2022-10-03T16:53:57.924Z,97810.72
2022-10-03T16:56:38.253Z,97815.88
2022-10-03T16:59:15.164Z,97815.06
2022-10-03T17:01:51.733Z,97812.88
2022-10-03T17:04:26.573Z,97813.38
2022-10-03T17:07:00.970Z,97821.28
2022-10-03T17:09:37.161Z,97821.22
2022-10-03T17:12:14.181Z,97826.94
2022-10-03T17:14:44.698Z,97824.78
2022-10-03T17:17:30.353Z,97823.78
2022-10-03T17:20:07.185Z,97824.59
2022-10-03T17:22:43.580Z,97823.06
2022-10-03T17:25:43.439Z,97820.63
2022-10-03T17:28:22.430Z,97828.34
2022-10-03T17:30:59.429Z,97829.09
2022-10-03T17:33:42.775Z,97831.50
2022-10-03T17:37:11.807Z,97828.00
2022-10-03T17:39:52.536Z,97820.28
2022-10-03T17:42:39.435Z,97824.41
2022-10-03T17:45:26.760Z,97826.47
2022-10-03T17:48:05.939Z,97825.88
2022-10-03T17:50:51.185Z,97823.16
2022-10-03T17:53:26.130Z,97822.88
2022-10-03T17:55:58.428Z,97817.84
2022-10-03T17:58:31.595Z,97828.75
2022-10-03T18:01:07.337Z,97825.50
2022-10-03T18:03:48.975Z,97828.03
2022-10-03T18:06:43.765Z,97818.28
2022-10-03T18:09:29.617Z,97830.91
2022-10-03T18:12:12.128Z,97824.69
2022-10-03T18:15:11.801Z,97824.63
2022-10-03T18:18:03.904Z,97816.72
2022-10-03T18:20:49.725Z,97821.97
2022-10-03T18:23:53.189Z,97817.84
2022-10-03T18:26:29.812Z,97824.47
2022-10-03T18:29:19.024Z,97820.78
2022-10-03T18:31:55.495Z,97824.41
2022-10-03T18:34:34.870Z,97827.44
2022-10-03T18:38:04.905Z,97827.91
2022-10-03T18:40:37.597Z,97820.22
2022-10-03T18:43:07.609Z,97823.91
2022-10-03T18:45:45.853Z,97819.97
2022-10-03T18:48:20.576Z,97818.41
2022-10-03T18:51:02.048Z,97814.75
2022-10-03T18:53:38.317Z,97818.94
2022-10-03T18:56:12.608Z,97818.72
2022-10-03T18:58:46.662Z,97817.69
2022-10-03T19:01:25.050Z,97815.91
2022-10-03T19:04:01.710Z,97819.34
2022-10-03T19:06:36.176Z,97815.41
2022-10-03T19:09:19.658Z,97814.19
2022-10-03T19:11:52.797Z,97814.81
2022-10-03T19:14:32.883Z,97808.41
2022-10-03T19:17:21.989Z,97808.44
2022-10-03T19:19:59.258Z,97812.56
2022-10-03T19:22:32.934Z,97812.50
2022-10-03T19:25:08.481Z,97819.59
2022-10-03T19:27:49.648Z,97818.91
2022-10-03T19:30:21.968Z,97810.16
2022-10-03T19:32:58.925Z,97815.94
2022-10-03T19:35:29.538Z,97822.91
2022-10-03T19:38:05.631Z,97816.56
2022-10-03T19:40:52.995Z,97821.56
2022-10-03T19:43:39.153Z,97817.81
2022-10-03T19:46:36.069Z,97818.78
2022-10-03T19:49:28.460Z,97825.53
2022-10-03T19:52:25.611Z,97824.31
2022-10-03T19:55:00.689Z,97829.28
2022-10-03T19:57:45.172Z,97807.00
2022-10-03T20:00:28.073Z,97813.72
2022-10-03T20:03:05.820Z,97811.53
2022-10-03T20:05:44.384Z,97819.91
2022-10-03T20:08:24.106Z,97814.59
2022-10-03T20:11:05.581Z,97814.53
2022-10-03T20:13:35.480Z,97810.19
2022-10-03T20:16:05.418Z,97810.38
2022-10-03T20:18:35.608Z,97820.00
2022-10-03T20:21:11.219Z,97817.56
2022-10-03T20:23:43.939Z,97815.31
2022-10-03T20:26:29.248Z,97807.34
2022-10-03T20:29:21.390Z,97823.78
2022-10-03T20:31:50.835Z,97816.03
2022-10-03T20:34:24.928Z,97810.25
2022-10-03T20:37:04.252Z,97812.06
2022-10-03T20:39:38.764Z,97815.16
2022-10-03T20:42:17.777Z,97816.03
2022-10-03T20:44:57.894Z,97816.94
2022-10-03T20:47:58.429Z,97808.31
2022-10-03T20:50:32.001Z,97803.44
2022-10-03T20:53:03.008Z,97802.38
2022-10-03T20:55:40.655Z,97804.00
2022-10-03T20:58:21.394Z,97793.34
2022-10-03T21:01:01.875Z,97791.97
2022-10-03T21:03:38.552Z,97800.84
2022-10-03T21:06:18.190Z,97796.59
2022-10-03T21:08:48.135Z,97789.16
2022-10-03T21:11:22.305Z,97794.56
2022-10-03T21:13:55.777Z,97790.53
2022-10-03T21:16:30.634Z,97791.72
2022-10-03T21:19:03.503Z,97795.00
2022-10-03T21:21:42.851Z,97795.28
2022-10-03T21:24:20.590Z,97784.13
2022-10-03T21:26:56.316Z,97791.81
2022-10-03T21:29:31.718Z,97789.13
2022-10-03T21:32:21.997Z,97771.56
2022-10-03T21:35:04.214Z,97764.00
2022-10-03T21:37:44.157Z,97770.94
2022-10-03T21:40:43.013Z,97769.50
2022-10-03T21:43:31.594Z,97764.97
2022-10-03T21:46:06.830Z,97770.19
2022-10-03T21:48:50.477Z,97768.66
2022-10-03T21:51:28.534Z,97758.66
2022-10-03T21:54:09.311Z,97755.75
2022-10-03T21:56:57.901Z,97762.88
2022-10-03T21:59:51.502Z,97756.91
2022-10-03T22:02:28.088Z,97766.94
2022-10-03T22:05:07.018Z,97761.25
2022-10-03T22:07:40.730Z,97764.25
2022-10-03T22:10:21.719Z,97762.34
2022-10-03T22:12:54.588Z,97768.84
2022-10-03T22:15:38.411Z,97759.38
2022-10-03T22:18:12.619Z,97766.19
2022-10-03T22:20:57.505Z,97755.03
2022-10-03T22:23:40.466Z,97749.34
2022-10-03T22:26:22.560Z,97746.91
2022-10-03T22:29:02.246Z,97750.97
2022-10-03T22:31:40.465Z,97753.41
2022-10-03T22:34:28.351Z,97748.28
2022-10-03T22:36:58.978Z,97741.75
2022-10-03T22:39:29.442Z,97739.34
2022-10-03T22:42:02.206Z,97741.25
2022-10-03T22:44:35.053Z,97737.19
2022-10-03T22:47:11.691Z,97731.78
2022-10-03T22:49:43.128Z,97736.63
2022-10-03T22:52:23.574Z,97734.47
2022-10-03T22:54:54.400Z,97745.03
2022-10-03T22:57:26.362Z,97735.28
2022-10-03T22:59:58.614Z,97735.03
2022-10-03T23:02:34.510Z,97732.31
2022-10-03T23:05:07.113Z,97733.13
2022-10-03T23:07:57.536Z,97735.81
2022-10-03T23:10:51.367Z,97738.50
2022-10-03T23:13:28.802Z,97736.06
2022-10-03T23:16:09.228Z,97752.09
2022-10-03T23:19:04.219Z,97738.53
2022-10-03T23:21:34.043Z,97744.19
2022-10-03T23:24:16.132Z,97738.78
2022-10-03T23:27:44.397Z,97737.97
2022-10-03T23:30:55.733Z,97738.25
2022-10-03T23:33:53.251Z,97736.38
2022-10-03T23:36:25.567Z,97732.59
2022-10-03T23:39:01.209Z,97730.13
2022-10-03T23:41:56.123Z,97733.91
2022-10-03T23:44:49.424Z,97729.84
2022-10-03T23:47:24.539Z,97721.72
2022-10-03T23:49:54.819Z,97724.13
2022-10-03T23:52:27.561Z,97722.78
2022-10-03T23:55:03.163Z,97724.44
2022-10-03T23:57:38.580Z,97721.72
